createdAt,value
2023-02-14T00:00:55.095Z,103444.66
2023-02-14T00:03:22.848Z,103440.19
2023-02-14T00:05:50.623Z,103449.19
2023-02-14T00:08:19.686Z,103451.06
2023-02-14T00:10:47.454Z,103450.19
2023-02-14T00:13:15.171Z,103449.34
2023-02-14T00:15:41.912Z,103446.72
2023-02-14T00:18:09.638Z,103446.75
2023-02-14T00:20:37.519Z,103445.03
2023-02-14T00:23:05.308Z,103441.44
2023-02-14T00:25:35.984Z,103438.84
2023-02-14T00:28:03.781Z,103441.56
2023-02-14T00:30:31.655Z,103440.72
2023-02-14T00:32:59.406Z,103432.72
2023-02-14T00:35:27.182Z,103433.69
2023-02-14T00:37:56.066Z,103431.97
2023-02-14T00:40:23.853Z,103427.59
2023-02-14T00:42:52.990Z,103425.84
2023-02-14T00:45:20.744Z,103429.53
2023-02-14T00:47:48.494Z,103421.56
2023-02-14T00:50:16.297Z,103418.94
2023-02-14T00:52:44.536Z,103414.53
2023-02-14T00:55:12.271Z,103411.84
2023-02-14T00:57:39.991Z,103414.53
2023-02-14T01:00:10.649Z,103411.88
2023-02-14T01:02:38.391Z,103411.03
2023-02-14T01:05:07.105Z,103414.72
2023-02-14T01:07:34.871Z,103414.78
2023-02-14T01:10:02.610Z,103413.94
2023-02-14T01:12:30.326Z,103412.19
2023-02-14T01:14:58.043Z,103409.50
2023-02-14T01:17:27.252Z,103402.34
2023-02-14T01:19:55.567Z,103413.16
2023-02-14T01:22:23.305Z,103406.03
2023-02-14T01:24:51.163Z,103402.47
2023-02-14T01:27:18.905Z,103398.00
2023-02-14T01:29:46.699Z,103395.34
2023-02-14T01:32:14.706Z,103399.00
2023-02-14T01:34:43.805Z,103393.63
2023-02-14T01:37:11.546Z,103394.53
2023-02-14T01:39:39.322Z,103386.47
2023-02-14T01:42:07.252Z,103390.06
2023-02-14T01:44:58.224Z,103391.91
2023-02-14T01:47:27.731Z,103393.69
2023-02-14T01:50:01.696Z,103395.56
2023-02-14T01:52:34.687Z,103397.38
2023-02-14T01:55:06.636Z,103392.06
2023-02-14T01:57:38.320Z,103397.59
2023-02-14T02:00:25.694Z,103393.19
2023-02-14T02:02:54.359Z,103396.91
2023-02-14T02:05:23.880Z,103405.00
2023-02-14T02:07:52.735Z,103407.72
2023-02-14T02:10:20.700Z,103409.56
2023-02-14T02:12:50.362Z,103397.06
2023-02-14T02:15:18.137Z,103405.22
2023-02-14T02:17:54.282Z,103399.09
2023-02-14T02:20:52.326Z,103396.44
2023-02-14T02:23:54.493Z,103392.91
2023-02-14T02:27:09.689Z,103392.91
2023-02-14T02:30:19.126Z,103394.75
2023-02-14T02:33:25.542Z,103399.28
2023-02-14T02:36:28.951Z,103401.09
2023-02-14T02:39:11.251Z,103395.69
2023-02-14T02:41:54.982Z,103390.31
2023-02-14T02:44:28.888Z,103391.16
2023-02-14T02:47:03.788Z,103383.06
2023-02-14T02:49:56.345Z,103383.06
2023-02-14T02:52:49.646Z,103382.25
2023-02-14T02:55:24.500Z,103383.09
2023-02-14T02:57:53.753Z,103381.31
2023-02-14T03:00:23.321Z,103375.94
2023-02-14T03:03:13.316Z,103370.59
2023-02-14T03:05:41.951Z,103377.78
2023-02-14T03:08:09.722Z,103381.38
2023-02-14T03:10:40.738Z,103376.97
2023-02-14T03:13:31.986Z,103373.47
2023-02-14T03:16:21.920Z,103375.28
2023-02-14T03:19:42.803Z,103379.84
2023-02-14T03:22:20.862Z,103374.50
2023-02-14T03:24:57.583Z,103374.59
2023-02-14T03:27:29.524Z,103380.03
2023-02-14T03:30:04.363Z,103379.16
2023-02-14T03:32:40.760Z,103380.06
2023-02-14T03:35:16.060Z,103371.09
2023-02-14T03:37:50.731Z,103373.78
2023-02-14T03:40:23.405Z,103374.72
2023-02-14T03:42:55.511Z,103362.22
2023-02-14T03:45:28.784Z,103363.09
2023-02-14T03:48:00.092Z,103367.59
2023-02-14T03:50:29.518Z,103360.44
2023-02-14T03:52:59.398Z,103364.03
2023-02-14T03:55:33.741Z,103370.31
2023-02-14T03:58:09.771Z,103371.25
2023-02-14T04:00:41.221Z,103376.59
2023-02-14T04:03:13.401Z,103373.97
2023-02-14T04:05:46.660Z,103368.63
2023-02-14T04:08:22.126Z,103370.47
2023-02-14T04:10:50.059Z,103372.28
2023-02-14T04:13:19.170Z,103371.41
2023-02-14T04:15:46.891Z,103367.88
2023-02-14T04:18:32.135Z,103370.59
2023-02-14T04:21:00.173Z,103364.34
2023-02-14T04:23:28.170Z,103368.81
2023-02-14T04:25:55.915Z,103365.31
2023-02-14T04:28:25.114Z,103369.00
2023-02-14T04:30:52.923Z,103369.94
2023-02-14T04:33:20.682Z,103372.69
2023-02-14T04:35:49.274Z,103372.69
2023-02-14T04:38:16.976Z,103374.53
2023-02-14T04:40:44.659Z,103370.94
2023-02-14T04:43:12.435Z,103375.41
2023-02-14T04:45:41.571Z,103374.53
2023-02-14T04:48:09.348Z,103364.66
2023-02-14T04:50:37.078Z,103370.91
2023-02-14T04:53:04.786Z,103355.75
2023-02-14T04:55:32.650Z,103357.53
2023-02-14T04:58:00.374Z,103362.97
2023-02-14T05:00:28.104Z,103354.00
2023-02-14T05:02:57.244Z,103360.28
2023-02-14T05:05:24.971Z,103361.25
2023-02-14T05:07:52.727Z,103348.72
2023-02-14T05:10:20.449Z,103349.63
2023-02-14T05:12:48.167Z,103351.50
2023-02-14T05:15:16.154Z,103351.47
2023-02-14T05:17:43.886Z,103357.72
2023-02-14T05:20:13.391Z,103356.00
2023-02-14T05:22:41.152Z,103361.38
2023-02-14T05:25:09.258Z,103352.50
2023-02-14T05:27:36.985Z,103357.94
2023-02-14T05:30:05.271Z,103360.66
2023-02-14T05:32:33.083Z,103367.88
2023-02-14T05:35:01.299Z,103372.41
2023-02-14T05:37:30.598Z,103369.78
2023-02-14T05:39:58.371Z,103367.19
2023-02-14T05:42:28.015Z,103369.91
2023-02-14T05:44:55.779Z,103363.69
2023-02-14T05:47:23.574Z,103364.66
2023-02-14T05:49:51.312Z,103365.59
2023-02-14T05:52:19.076Z,103365.69
2023-02-14T05:54:48.172Z,103362.13
2023-02-14T05:57:15.894Z,103364.00
2023-02-14T05:59:43.650Z,103362.25
2023-02-14T06:02:11.897Z,103356.88
2023-02-14T06:04:39.718Z,103354.25
2023-02-14T06:07:07.477Z,103356.97
2023-02-14T06:09:35.802Z,103364.13
2023-02-14T06:12:05.292Z,103365.94
2023-02-14T06:14:33.054Z,103357.06
2023-02-14T06:17:00.969Z,103365.94
2023-02-14T06:19:28.791Z,103365.13
2023-02-14T06:21:56.546Z,103366.03
2023-02-14T06:24:24.559Z,103364.25
2023-02-14T06:26:52.318Z,103365.19
2023-02-14T06:29:21.456Z,103359.06
2023-02-14T06:31:49.333Z,103362.66
2023-02-14T06:34:17.208Z,103361.78
2023-02-14T06:36:45.015Z,103360.00
2023-02-14T06:39:12.816Z,103360.03
2023-02-14T06:41:40.696Z,103363.66
2023-02-14T06:44:10.377Z,103358.34
2023-02-14T06:46:39.505Z,103354.78
2023-02-14T06:49:07.268Z,103358.38
2023-02-14T06:51:35.028Z,103361.97
2023-02-14T06:54:02.940Z,103360.19
2023-02-14T06:56:30.703Z,103356.69
2023-02-14T06:58:58.423Z,103354.94
2023-02-14T07:01:26.171Z,103356.78
2023-02-14T07:03:55.296Z,103358.63
2023-02-14T07:06:23.088Z,103361.38
2023-02-14T07:08:50.970Z,103363.19
2023-02-14T07:11:18.753Z,103352.53
2023-02-14T07:13:48.532Z,103360.56
2023-02-14T07:16:17.240Z,103360.59
2023-02-14T07:18:45.002Z,103359.66
2023-02-14T07:21:14.102Z,103361.44
2023-02-14T07:23:41.929Z,103361.44
2023-02-14T07:26:09.820Z,103360.53
2023-02-14T07:28:37.587Z,103366.75
2023-02-14T07:31:05.698Z,103361.41
2023-02-14T07:33:33.526Z,103372.09
2023-02-14T07:36:06.192Z,103368.50
2023-02-14T07:38:35.597Z,103370.28
2023-02-14T07:41:04.063Z,103369.41
2023-02-14T07:43:34.416Z,103363.16
2023-02-14T07:46:02.785Z,103363.16
2023-02-14T07:48:33.198Z,103376.47
2023-02-14T07:51:02.414Z,103370.22
2023-02-14T07:53:30.587Z,103371.09
2023-02-14T07:55:59.720Z,103374.59
2023-02-14T07:58:27.497Z,103370.97
2023-02-14T08:00:55.969Z,103373.63
2023-02-14T08:03:23.778Z,103374.47
2023-02-14T08:05:57.213Z,103379.78
2023-02-14T08:08:27.365Z,103379.72
2023-02-14T08:10:55.404Z,103381.44
2023-02-14T08:13:24.640Z,103379.59
2023-02-14T08:16:09.542Z,103380.41
2023-02-14T08:18:39.258Z,103384.84
2023-02-14T08:21:09.051Z,103385.63
2023-02-14T08:23:37.774Z,103386.44
2023-02-14T08:26:05.814Z,103377.41
2023-02-14T08:28:35.243Z,103372.91
2023-02-14T08:31:04.554Z,103384.38
2023-02-14T08:33:32.511Z,103374.44
2023-02-14T08:36:00.292Z,103379.69
2023-02-14T08:38:28.106Z,103383.16
2023-02-14T08:40:56.018Z,103372.31
2023-02-14T08:43:24.015Z,103376.59
2023-02-14T08:45:54.880Z,103368.38
2023-02-14T08:48:23.568Z,103365.53
2023-02-14T08:50:51.485Z,103363.59
2023-02-14T08:53:19.280Z,103362.50
2023-02-14T08:55:47.225Z,103362.34
2023-02-14T08:58:15.461Z,103362.13
2023-02-14T09:00:43.209Z,103366.41
2023-02-14T09:03:12.303Z,103362.56
2023-02-14T09:05:40.488Z,103357.91
2023-02-14T09:08:08.276Z,103355.84
2023-02-14T09:10:36.259Z,103354.75
2023-02-14T09:13:04.017Z,103357.25
2023-02-14T09:15:31.963Z,103355.28
2023-02-14T09:17:59.681Z,103352.31
2023-02-14T09:20:28.945Z,103352.06
2023-02-14T09:22:56.970Z,103342.88
2023-02-14T09:25:24.681Z,103349.78
2023-02-14T09:27:52.394Z,103344.19
2023-02-14T09:30:20.236Z,103344.78
2023-02-14T09:32:48.006Z,103349.03
2023-02-14T09:35:16.675Z,103349.66
2023-02-14T09:37:45.789Z,103353.84
2023-02-14T09:40:16.463Z,103349.97
2023-02-14T09:42:54.007Z,103347.03
2023-02-14T09:45:25.282Z,103339.63
2023-02-14T09:47:58.249Z,103345.59
2023-02-14T09:50:31.603Z,103347.06
2023-02-14T09:53:05.842Z,103345.84
2023-02-14T09:55:39.731Z,103343.00
2023-02-14T09:58:12.884Z,103348.94
2023-02-14T10:00:46.581Z,103344.09
2023-02-14T10:03:44.080Z,103346.41
2023-02-14T10:06:24.301Z,103346.03
2023-02-14T10:09:04.938Z,103347.53
2023-02-14T10:11:33.052Z,103347.28
2023-02-14T10:14:05.155Z,103349.59
2023-02-14T10:16:38.398Z,103343.88
2023-02-14T10:19:16.687Z,103344.38
2023-02-14T10:21:49.855Z,103341.22
2023-02-14T10:24:22.759Z,103339.97
2023-02-14T10:26:51.813Z,103344.03
2023-02-14T10:29:20.735Z,103342.75
2023-02-14T10:31:55.800Z,103345.09
2023-02-14T10:34:32.071Z,103340.22
2023-02-14T10:37:19.982Z,103337.03
2023-02-14T10:40:09.553Z,103339.25
2023-02-14T10:42:47.778Z,103333.31
2023-02-14T10:45:23.936Z,103321.25
2023-02-14T10:47:59.830Z,103316.41
2023-02-14T10:50:34.587Z,103327.66
2023-02-14T10:53:15.147Z,103318.16
2023-02-14T10:55:52.064Z,103327.53
2023-02-14T10:58:23.890Z,103325.16
2023-02-14T11:00:59.390Z,103318.41
2023-02-14T11:03:29.400Z,103317.13
2023-02-14T11:05:57.336Z,103311.22
2023-02-14T11:08:28.354Z,103309.78
2023-02-14T11:11:06.728Z,103311.91
2023-02-14T11:13:40.180Z,103307.06
2023-02-14T11:16:11.553Z,103298.66
2023-02-14T11:18:41.724Z,103302.84
2023-02-14T11:21:11.954Z,103300.59
2023-02-14T11:23:42.312Z,103302.91
2023-02-14T11:26:17.648Z,103297.94
2023-02-14T11:28:53.874Z,103301.16
2023-02-14T11:31:33.336Z,103287.00
2023-02-14T11:34:04.785Z,103285.63
2023-02-14T11:36:40.065Z,103282.44
2023-02-14T11:39:23.207Z,103280.94
2023-02-14T11:41:55.512Z,103279.59
2023-02-14T11:44:26.161Z,103277.38
2023-02-14T11:46:56.849Z,103279.69
2023-02-14T11:49:31.262Z,103267.47
2023-02-14T11:52:01.141Z,103262.63
2023-02-14T11:54:34.631Z,103253.97
2023-02-14T11:57:13.333Z,103252.59
2023-02-14T11:59:43.889Z,103247.53
2023-02-14T12:02:32.586Z,103243.47
2023-02-14T12:05:02.934Z,103237.69
2023-02-14T12:07:33.296Z,103233.72
2023-02-14T12:10:20.696Z,103227.84
2023-02-14T12:12:56.484Z,103227.50
2023-02-14T12:15:28.258Z,103226.44
2023-02-14T12:18:04.418Z,103231.44
2023-02-14T12:20:41.829Z,103226.47
2023-02-14T12:23:17.896Z,103221.53
2023-02-14T12:25:52.355Z,103212.25
2023-02-14T12:28:30.785Z,103209.28
2023-02-14T12:30:59.368Z,103201.72
2023-02-14T12:33:27.381Z,103204.09
2023-02-14T12:36:04.592Z,103200.31
2023-02-14T12:38:45.243Z,103199.25
2023-02-14T12:41:30.294Z,103208.97
2023-02-14T12:44:08.456Z,103194.16
2023-02-14T12:46:51.489Z,103193.00
2023-02-14T12:49:40.374Z,103181.94
2023-02-14T12:52:40.461Z,103171.75
2023-02-14T12:55:32.777Z,103176.13
2023-02-14T12:58:06.748Z,103174.09
2023-02-14T13:00:45.936Z,103175.50
2023-02-14T13:03:39.314Z,103174.25
2023-02-14T13:06:15.767Z,103171.06
2023-02-14T13:09:01.454Z,103157.34
2023-02-14T13:11:42.518Z,103159.19
2023-02-14T13:14:28.502Z,103160.16
2023-02-14T13:17:05.524Z,103152.84
2023-02-14T13:19:45.647Z,103149.97
2023-02-14T13:22:20.286Z,103152.69
2023-02-14T13:24:50.431Z,103147.25
2023-02-14T13:27:22.608Z,103140.84
2023-02-14T13:29:54.794Z,103131.78
2023-02-14T13:32:29.688Z,103131.66
2023-02-14T13:34:58.852Z,103138.09
2023-02-14T13:37:28.221Z,103138.09
2023-02-14T13:39:59.516Z,103122.53
2023-02-14T13:42:53.524Z,103124.38
2023-02-14T13:46:03.720Z,103119.03
2023-02-14T13:48:33.052Z,103116.50
2023-02-14T13:51:03.291Z,103117.56
2023-02-14T13:53:38.007Z,103114.16
2023-02-14T13:56:27.329Z,103118.91
2023-02-14T13:58:59.826Z,103112.09
2023-02-14T14:01:36.849Z,103114.22
2023-02-14T14:04:27.639Z,103109.16
2023-02-14T14:07:19.364Z,103107.50
2023-02-14T14:09:55.311Z,103114.88
2023-02-14T14:12:39.467Z,103105.91
2023-02-14T14:15:13.179Z,103108.94
2023-02-14T14:17:44.501Z,103109.91
2023-02-14T14:20:45.270Z,103107.34
2023-02-14T14:23:40.282Z,103099.50
2023-02-14T14:26:34.770Z,103104.25
2023-02-14T14:29:02.583Z,103111.78
2023-02-14T14:31:31.473Z,103101.88
2023-02-14T14:34:00.667Z,103094.84
2023-02-14T14:36:29.826Z,103097.69
2023-02-14T14:38:57.594Z,103097.69
2023-02-14T14:41:31.277Z,103097.84
2023-02-14T14:44:00.381Z,103095.22
2023-02-14T14:46:28.546Z,103100.88
2023-02-14T14:48:57.952Z,103092.78
2023-02-14T14:51:31.605Z,103093.84
2023-02-14T14:54:03.898Z,103106.56
2023-02-14T14:56:34.963Z,103092.06
2023-02-14T14:59:19.380Z,103084.91
2023-02-14T15:01:48.818Z,103082.25
2023-02-14T15:04:20.690Z,103090.50
2023-02-14T15:06:49.766Z,103083.31
2023-02-14T15:09:23.737Z,103081.50
2023-02-14T15:12:11.969Z,103075.25
2023-02-14T15:14:43.588Z,103073.41
2023-02-14T15:17:19.299Z,103087.91
2023-02-14T15:19:50.927Z,103077.00
2023-02-14T15:22:21.700Z,103083.31
2023-02-14T15:24:52.161Z,103083.31
2023-02-14T15:27:23.311Z,103080.69
2023-02-14T15:29:56.424Z,103077.97
2023-02-14T15:32:25.476Z,103075.25
2023-02-14T15:34:54.264Z,103079.75
2023-02-14T15:37:23.142Z,103073.50
2023-02-14T15:39:55.755Z,103072.63
2023-02-14T15:42:27.721Z,103073.59
2023-02-14T15:45:22.336Z,103068.25
2023-02-14T15:47:53.096Z,103064.75
2023-02-14T15:50:24.327Z,103066.66
2023-02-14T15:52:55.817Z,103075.78
2023-02-14T15:55:27.319Z,103063.19
2023-02-14T15:57:57.924Z,103066.78
2023-02-14T16:00:26.771Z,103061.50
2023-02-14T16:02:57.458Z,103063.44
2023-02-14T16:05:27.215Z,103069.66
2023-02-14T16:08:00.043Z,103062.66
2023-02-14T16:10:30.686Z,103064.56
2023-02-14T16:13:03.649Z,103068.28
2023-02-14T16:15:33.793Z,103071.97
2023-02-14T16:18:06.918Z,103063.00
2023-02-14T16:20:41.567Z,103067.75
2023-02-14T16:23:17.595Z,103064.22
2023-02-14T16:25:46.935Z,103064.34
2023-02-14T16:28:14.987Z,103058.97
2023-02-14T16:30:44.021Z,103057.19
2023-02-14T16:33:17.603Z,103048.34
2023-02-14T16:35:46.512Z,103051.25
2023-02-14T16:38:16.447Z,103049.66
2023-02-14T16:40:47.754Z,103056.16
2023-02-14T16:43:16.301Z,103051.78
2023-02-14T16:45:44.831Z,103060.19
2023-02-14T16:48:13.109Z,103052.28
2023-02-14T16:50:42.297Z,103048.88
2023-02-14T16:53:19.030Z,103053.59
2023-02-14T16:55:48.174Z,103052.97
2023-02-14T16:58:16.006Z,103053.34
2023-02-14T17:00:43.713Z,103056.38
2023-02-14T17:03:14.300Z,103058.50
2023-02-14T17:05:42.156Z,103062.50
2023-02-14T17:08:13.276Z,103066.50
2023-02-14T17:10:43.525Z,103066.00
2023-02-14T17:13:13.283Z,103059.91
2023-02-14T17:15:41.529Z,103068.31
2023-02-14T17:18:12.738Z,103070.47
2023-02-14T17:20:40.918Z,103070.88
2023-02-14T17:23:08.946Z,103066.66
2023-02-14T17:25:36.719Z,103062.50
2023-02-14T17:28:04.574Z,103063.72
2023-02-14T17:30:33.857Z,103062.22
2023-02-14T17:33:01.647Z,103063.38
2023-02-14T17:35:30.000Z,103061.00
2023-02-14T17:37:57.818Z,103064.94
2023-02-14T17:40:25.661Z,103058.06
2023-02-14T17:42:53.433Z,103060.19
2023-02-14T17:45:22.355Z,103059.72
2023-02-14T17:47:51.564Z,103060.91
2023-02-14T17:50:19.494Z,103053.00
2023-02-14T17:52:47.364Z,103054.13
2023-02-14T17:55:15.782Z,103066.00
2023-02-14T17:57:43.667Z,103055.47
2023-02-14T18:00:14.183Z,103047.59
2023-02-14T18:02:42.056Z,103055.97
2023-02-14T18:05:12.272Z,103046.16
2023-02-14T18:07:42.968Z,103045.44
2023-02-14T18:10:11.450Z,103041.13
2023-02-14T18:12:39.564Z,103050.25
2023-02-14T18:15:07.764Z,103047.78
2023-02-14T18:17:35.583Z,103053.34
2023-02-14T18:20:03.398Z,103050.06
2023-02-14T18:22:33.034Z,103042.25
2023-02-14T18:25:00.806Z,103041.72
2023-02-14T18:27:28.674Z,103039.31
2023-02-14T18:29:56.539Z,103036.91
2023-02-14T18:32:24.479Z,103039.59
2023-02-14T18:34:52.477Z,103044.19
2023-02-14T18:37:20.220Z,103038.13
2023-02-14T18:39:49.360Z,103035.56
2023-02-14T18:42:17.123Z,103034.91
2023-02-14T18:44:44.859Z,103028.75
2023-02-14T18:47:12.660Z,103029.94
2023-02-14T18:49:40.415Z,103030.16
2023-02-14T18:52:08.309Z,103030.34
2023-02-14T18:54:36.413Z,103028.75
2023-02-14T18:57:05.555Z,103032.50
2023-02-14T18:59:33.351Z,103030.09
2023-02-14T19:02:01.258Z,103026.72
2023-02-14T19:04:29.068Z,103026.84
2023-02-14T19:06:56.831Z,103027.94
2023-02-14T19:09:27.520Z,103027.19
2023-02-14T19:11:59.992Z,103024.69
2023-02-14T19:14:29.171Z,103025.88
2023-02-14T19:16:56.949Z,103027.91
2023-02-14T19:19:24.772Z,103025.41
2023-02-14T19:21:53.144Z,103027.44
2023-02-14T19:24:21.797Z,103031.19
2023-02-14T19:26:49.723Z,103023.28
2023-02-14T19:29:19.166Z,103020.78
2023-02-14T19:31:50.271Z,103024.63
2023-02-14T19:34:20.444Z,103021.19
2023-02-14T19:36:49.278Z,103022.25
2023-02-14T19:39:17.284Z,103028.88
2023-02-14T19:41:45.170Z,103019.19
2023-02-14T19:44:14.734Z,103014.88
2023-02-14T19:46:43.770Z,103020.47
2023-02-14T19:49:16.895Z,103019.72
2023-02-14T19:51:45.479Z,103016.31
2023-02-14T19:54:15.263Z,103015.56
2023-02-14T19:56:45.199Z,103017.59
2023-02-14T19:59:18.098Z,103010.53
2023-02-14T20:01:47.836Z,103015.25
2023-02-14T20:04:19.074Z,103013.56
2023-02-14T20:06:47.370Z,103005.63
2023-02-14T20:09:15.725Z,103000.38
2023-02-14T20:11:50.076Z,103000.50
2023-02-14T20:14:19.458Z,102995.25
2023-02-14T20:16:48.409Z,102992.59
2023-02-14T20:19:19.433Z,102990.06
2023-02-14T20:21:48.339Z,102992.94
2023-02-14T20:24:17.990Z,102979.53
2023-02-14T20:26:47.400Z,102989.66
2023-02-14T20:29:15.915Z,102989.81
2023-02-14T20:31:48.534Z,102984.66
2023-02-14T20:34:18.881Z,102983.09
2023-02-14T20:36:49.579Z,102977.88
2023-02-14T20:39:17.420Z,102975.38
2023-02-14T20:41:49.711Z,102975.47
2023-02-14T20:44:19.884Z,102962.13
2023-02-14T20:46:47.903Z,102963.19
2023-02-14T20:49:18.572Z,102956.06
2023-02-14T20:51:49.620Z,102952.69
2023-02-14T20:54:18.141Z,102955.50
2023-02-14T20:56:46.031Z,102956.44
2023-02-14T20:59:14.142Z,102957.50
2023-02-14T21:01:42.005Z,102952.22
2023-02-14T21:04:09.798Z,102948.81
2023-02-14T21:06:40.159Z,102948.06
2023-02-14T21:09:08.614Z,102946.38
2023-02-14T21:11:36.366Z,102945.59
2023-02-14T21:14:04.183Z,102940.25
2023-02-14T21:16:34.801Z,102941.19
2023-02-14T21:19:02.525Z,102943.13
2023-02-14T21:21:34.707Z,102943.22
2023-02-14T21:24:06.426Z,102946.91
2023-02-14T21:26:34.719Z,102941.66
2023-02-14T21:29:02.853Z,102939.06
2023-02-14T21:31:34.068Z,102947.25
2023-02-14T21:34:03.334Z,102939.34
2023-02-14T21:36:35.482Z,102934.06
2023-02-14T21:39:06.038Z,102933.34
2023-02-14T21:41:34.788Z,102938.78
2023-02-14T21:44:04.187Z,102934.44
2023-02-14T21:46:35.697Z,102929.25
2023-02-14T21:49:22.961Z,102929.34
2023-02-14T21:51:50.705Z,102935.78
2023-02-14T21:54:19.882Z,102931.41
2023-02-14T21:56:49.256Z,102933.28
2023-02-14T21:59:17.052Z,102930.69
2023-02-14T22:01:44.836Z,102929.09
2023-02-14T22:04:13.725Z,102933.75
2023-02-14T22:06:43.303Z,102928.59
2023-02-14T22:09:14.106Z,102929.50
2023-02-14T22:11:43.372Z,102932.31
2023-02-14T22:14:11.297Z,102932.38
2023-02-14T22:16:39.099Z,102938.72
2023-02-14T22:19:07.387Z,102922.75
2023-02-14T22:21:36.250Z,102926.47
2023-02-14T22:24:04.651Z,102922.06
2023-02-14T22:26:33.817Z,102913.22
2023-02-14T22:29:03.999Z,102915.97
2023-02-14T22:31:34.895Z,102914.25
2023-02-14T22:34:02.795Z,102917.00
2023-02-14T22:36:30.694Z,102909.88
2023-02-14T22:38:58.482Z,102916.25
2023-02-14T22:41:26.698Z,102911.84
2023-02-14T22:43:55.163Z,102920.00
2023-02-14T22:46:26.592Z,102906.66
2023-02-14T22:48:55.331Z,102912.19
2023-02-14T22:51:25.874Z,102905.09
2023-02-14T22:53:55.561Z,102901.56
2023-02-14T22:56:29.872Z,102899.88
2023-02-14T22:58:58.963Z,102908.84
2023-02-14T23:01:28.449Z,102909.78
2023-02-14T23:03:59.016Z,102906.25
2023-02-14T23:06:28.566Z,102909.00
2023-02-14T23:08:57.408Z,102906.41
2023-02-14T23:11:27.580Z,102910.03
2023-02-14T23:14:13.075Z,102919.09
2023-02-14T23:17:00.226Z,102919.28
2023-02-14T23:19:48.027Z,102912.19
2023-02-14T23:22:19.521Z,102919.41
2023-02-14T23:24:47.745Z,102905.19
2023-02-14T23:27:16.598Z,102908.84
2023-02-14T23:29:44.986Z,102913.38
2023-02-14T23:32:14.237Z,102913.44
2023-02-14T23:34:44.885Z,102906.34
2023-02-14T23:37:13.780Z,102915.41
2023-02-14T23:39:41.616Z,102905.66
2023-02-14T23:42:12.172Z,102911.06
2023-02-14T23:44:40.003Z,102905.84
2023-02-14T23:47:10.107Z,102898.75
2023-02-14T23:49:40.694Z,102900.63
2023-02-14T23:52:10.970Z,102896.19
2023-02-14T23:54:39.223Z,102897.16
2023-02-14T23:57:08.414Z,102899.88
2023-02-14T23:59:36.442Z,102894.59
